Time;durP1;ratioP1;P1;durP2;ratioP2;P2;SDS_P1;SDS_P2;PMS_P1;PMS_P2;Temp;Humidity;BMP_temperature;BMP_pressure;BME280_temperature;BME280_humidity;BME280_pressure;Samples;Min_cycle;Max_cycle;Signal;HPM_P1;HPM_P2
2022/04/30 00:04:48;;;;;;;4.72;2.80;;;;;;;23.02;37.22;101009.50;20439553;28;96984;-82
2022/04/30 00:14:51;;;;;;;4.20;3.20;;;;;;;23.02;37.34;101000.72;20438356;28;100320;-83
2022/04/30 00:24:51;;;;;;;4.63;3.00;;;;;;;22.99;37.51;101000.97;20441410;28;98653;-83
2022/04/30 00:34:52;;;;;;;4.10;2.45;;;;;;;22.98;37.73;101000.13;20443318;28;96919;-82
2022/04/30 00:44:52;;;;;;;6.25;2.90;;;;;;;22.98;37.68;101005.41;20443565;28;100296;-82
2022/04/30 00:54:59;;;;;;;3.15;2.58;;;;;;;22.96;37.98;101006.47;20442241;28;98108;-82
2022/04/30 01:05:00;;;;;;;3.15;2.85;;;;;;;22.96;37.61;101002.06;20385390;28;101419;-81
2022/04/30 01:15:05;;;;;;;3.47;2.90;;;;;;;22.96;37.82;100998.56;20367616;28;97390;-81
2022/04/30 01:25:06;;;;;;;3.90;2.95;;;;;;;22.92;37.84;100992.66;20358826;28;97249;-80
2022/04/30 01:45:26;;;;;;;3.65;2.65;;;;;;;22.89;38.35;100985.00;20436192;28;98043;-80
2022/04/30 01:55:28;;;;;;;4.22;3.30;;;;;;;22.85;38.40;100975.59;20378696;28;97105;-80
2022/04/30 02:05:29;;;;;;;5.30;3.13;;;;;;;22.82;38.60;100968.75;20369115;28;100184;-79
2022/04/30 02:15:32;;;;;;;3.50;2.60;;;;;;;22.82;38.39;100954.72;20371951;28;98320;-80
2022/04/30 02:25:35;;;;;;;4.47;2.97;;;;;;;22.82;38.52;100957.34;20368592;28;97931;-80
2022/04/30 02:35:38;;;;;;;3.78;2.95;;;;;;;22.82;38.80;100952.06;20373042;28;96975;-81
2022/04/30 02:45:41;;;;;;;3.78;2.83;;;;;;;22.79;38.68;100950.50;20385215;28;98451;-80
2022/04/30 02:55:42;;;;;;;3.05;2.47;;;;;;;22.79;38.66;100937.31;20377593;28;97598;-80
2022/04/30 03:05:44;;;;;;;3.25;2.95;;;;;;;22.77;38.95;100938.38;20386985;28;97161;-81
2022/04/30 03:15:49;;;;;;;3.45;2.80;;;;;;;22.75;38.87;100942.94;20379895;28;97291;-80
2022/04/30 03:25:49;;;;;;;3.53;2.50;;;;;;;22.73;39.00;100935.13;20381432;28;97337;-80
2022/04/30 03:35:50;;;;;;;4.07;2.87;;;;;;;22.73;39.22;100942.19;20364631;28;101005;-80
2022/04/30 03:45:50;;;;;;;3.40;2.70;;;;;;;22.70;39.37;100949.41;20376221;28;97571;-80
2022/04/30 03:55:52;;;;;;;4.45;2.72;;;;;;;22.70;39.01;100951.19;20373747;28;97562;-80
2022/04/30 04:05:52;;;;;;;2.72;2.50;;;;;;;22.70;39.24;100953.84;20371279;28;97068;-80
2022/04/30 04:26:13;;;;;;;2.75;2.25;;;;;;;22.73;38.90;100958.91;20375009;28;98821;-81
2022/04/30 04:36:13;;;;;;;2.63;2.40;;;;;;;22.72;39.40;100959.84;20367352;28;97098;-79
2022/04/30 04:46:15;;;;;;;2.83;2.42;;;;;;;22.74;39.11;100962.38;20368972;28;98135;-80
2022/04/30 04:56:16;;;;;;;4.60;2.53;;;;;;;22.74;39.08;100970.28;20373353;28;96926;-79
2022/04/30 05:06:16;;;;;;;4.43;2.25;;;;;;;22.80;39.14;100970.69;20382157;28;97042;-80
2022/04/30 05:16:17;;;;;;;2.60;2.40;;;;;;;22.85;39.39;100967.66;20373229;28;96926;-78
2022/04/30 05:26:17;;;;;;;15.82;8.68;;;;;;;22.88;39.72;100970.09;20359063;28;97842;-77
2022/04/30 05:36:18;;;;;;;39.72;15.43;;;;;;;22.95;40.43;100981.03;20357692;28;101357;-79
2022/04/30 05:46:18;;;;;;;32.10;12.98;;;;;;;23.00;40.66;100978.91;20357512;28;97287;-77
2022/04/30 05:56:20;;;;;;;28.90;11.80;;;;;;;23.03;41.27;100981.28;20377487;28;97009;-79
2022/04/30 06:06:20;;;;;;;35.13;12.07;;;;;;;23.06;41.20;100978.44;20366943;28;97074;-77
2022/04/30 06:16:21;;;;;;;25.60;10.50;;;;;;;23.07;41.01;100985.41;20350250;28;97664;-77
2022/04/30 06:26:21;;;;;;;29.45;10.02;;;;;;;23.03;40.19;100971.59;20348050;28;97354;-76
2022/04/30 06:36:22;;;;;;;24.80;9.52;;;;;;;23.08;40.56;100978.31;20383760;28;97168;-79
2022/04/30 06:46:23;;;;;;;24.75;9.27;;;;;;;23.09;40.76;100974.72;20382443;28;97339;-77
2022/04/30 07:06:43;;;;;;;28.10;8.35;;;;;;;23.12;40.81;100970.03;20377390;28;99574;-76
2022/04/30 07:16:43;;;;;;;26.90;7.80;;;;;;;23.18;39.17;100960.84;20387749;28;98006;-75
2022/04/30 07:26:44;;;;;;;16.33;4.95;;;;;;;23.05;35.68;100952.16;20367304;28;98589;-75
2022/04/30 07:36:44;;;;;;;9.35;4.38;;;;;;;22.92;35.36;100953.06;20354214;28;97117;-75
2022/04/30 07:46:45;;;;;;;9.38;4.28;;;;;;;22.86;35.28;100949.09;20361496;28;97819;-77
2022/04/30 07:56:47;;;;;;;5.55;3.75;;;;;;;22.74;33.37;100942.09;20382803;28;100458;-75
2022/04/30 08:06:47;;;;;;;5.37;3.43;;;;;;;22.52;32.76;100951.63;20433246;28;98158;-75
2022/04/30 08:16:47;;;;;;;5.43;3.78;;;;;;;22.21;32.42;100939.81;20440294;28;102483;-75
2022/04/30 08:26:49;;;;;;;15.68;4.63;;;;;;;21.70;34.49;100944.31;20427525;28;99520;-77
2022/04/30 08:36:50;;;;;;;5.68;3.40;;;;;;;21.55;32.41;100948.81;20431917;28;97182;-74
2022/04/30 08:46:51;;;;;;;8.63;3.88;;;;;;;21.77;32.03;100942.06;20407413;28;98449;-75
2022/04/30 08:56:53;;;;;;;3.83;3.38;;;;;;;21.84;31.56;100931.94;20329719;28;100047;-74
2022/04/30 09:06:55;;;;;;;10.00;3.47;;;;;;;22.03;32.48;100926.16;20320019;28;102009;-78
2022/04/30 09:17:10;;;;;;;4.60;3.17;;;;;;;21.90;31.37;100908.59;20328480;28;98443;-77
2022/04/30 09:27:13;;;;;;;12.15;5.18;;;;;;;22.16;32.18;100903.22;20320820;28;99917;-78
2022/04/30 09:47:36;;;;;;;6.97;3.30;;;;;;;22.27;32.41;100876.06;20403484;28;97352;-78
2022/04/30 09:57:38;;;;;;;9.02;3.30;;;;;;;22.43;31.07;100867.03;20418209;28;98168;-78
2022/04/30 10:07:38;;;;;;;4.90;3.63;;;;;;;22.30;28.14;100851.22;20411963;28;98467;-78
2022/04/30 10:17:42;;;;;;;6.85;3.85;;;;;;;22.26;28.92;100841.88;20392948;28;98163;-77
2022/04/30 10:27:45;;;;;;;8.48;4.03;;;;;;;22.52;31.76;100837.28;20394340;28;100120;-78
2022/04/30 10:37:46;;;;;;;8.52;3.60;;;;;;;22.55;29.53;100829.16;20432210;28;98442;-80
2022/04/30 10:47:55;;;;;;;5.00;3.25;;;;;;;22.49;29.10;100819.88;20419284;28;101430;-80
2022/04/30 10:57:56;;;;;;;4.75;3.22;;;;;;;22.68;30.58;100814.06;20436224;28;97842;-80
2022/04/30 11:08:03;;;;;;;7.80;3.50;;;;;;;22.74;30.11;100806.59;20423291;28;101503;-79
2022/04/30 11:18:04;;;;;;;6.75;3.25;;;;;;;22.81;29.46;100798.13;20425797;28;97848;-78
2022/04/30 11:28:06;;;;;;;6.43;2.87;;;;;;;22.98;28.75;100793.28;20452880;28;97848;-78
2022/04/30 11:38:10;;;;;;;6.13;3.27;;;;;;;23.09;29.89;100777.44;20483300;28;96913;-79
2022/04/30 11:48:11;;;;;;;4.20;2.70;;;;;;;23.08;29.42;100782.84;20479404;28;97085;-80
2022/04/30 11:58:11;;;;;;;5.28;2.92;;;;;;;23.07;29.44;100757.38;20483812;28;98342;-75
2022/04/30 12:08:12;;;;;;;3.70;2.80;;;;;;;23.10;29.81;100751.88;20464441;28;97147;-78
2022/04/30 12:28:49;;;;;;;7.53;3.30;;;;;;;23.05;29.31;100746.13;20449279;28;97831;-76
2022/04/30 12:38:56;;;;;;;5.30;3.35;;;;;;;23.03;28.64;100741.81;20465445;28;99142;-77
2022/04/30 12:48:57;;;;;;;7.63;4.07;;;;;;;22.90;27.33;100732.31;20463549;28;97065;-77
2022/04/30 12:58:57;;;;;;;3.22;2.42;;;;;;;23.05;25.73;100714.44;20447065;28;102504;-78
2022/04/30 13:19:18;;;;;;;4.15;2.60;;;;;;;23.40;26.56;100692.25;20466838;28;100727;-79
2022/04/30 13:29:20;;;;;;;4.40;2.70;;;;;;;23.40;26.33;100677.25;20460110;28;97732;-77
2022/04/30 13:39:20;;;;;;;5.03;2.97;;;;;;;23.35;26.82;100676.75;20448834;28;97236;-76
2022/04/30 13:49:22;;;;;;;4.40;3.30;;;;;;;23.32;27.59;100651.44;20475273;28;97552;-78
2022/04/30 13:59:24;;;;;;;2.83;2.60;;;;;;;23.34;26.39;100648.69;20463056;28;97395;-79
2022/04/30 14:09:26;;;;;;;3.17;2.65;;;;;;;23.44;27.62;100649.59;20445921;28;99946;-77
2022/04/30 14:19:27;;;;;;;4.85;2.95;;;;;;;23.44;27.34;100646.13;20447571;28;98175;-77
2022/04/30 14:29:28;;;;;;;7.57;3.13;;;;;;;23.40;29.10;100649.97;20443137;28;100705;-79
2022/04/30 14:39:28;;;;;;;4.75;2.95;;;;;;;23.42;28.96;100632.19;20447802;28;97417;-79
2022/04/30 14:49:29;;;;;;;15.93;4.05;;;;;;;23.32;27.69;100632.13;20459096;28;97575;-78
2022/04/30 14:59:29;;;;;;;7.40;3.58;;;;;;;23.36;26.50;100617.66;20439345;28;97769;-79
2022/04/30 15:09:30;;;;;;;8.23;3.20;;;;;;;23.60;27.20;100619.25;20432390;28;103124;-79
2022/04/30 15:19:30;;;;;;;12.48;3.50;;;;;;;23.66;28.93;100608.16;20443222;28;97347;-77
2022/04/30 15:29:31;;;;;;;10.63;3.83;;;;;;;23.85;30.13;100610.03;20481317;28;97177;-77
2022/04/30 15:39:32;;;;;;;12.80;3.97;;;;;;;24.12;30.65;100608.66;20494906;28;97193;-78
2022/04/30 15:59:51;;;;;;;8.43;3.17;;;;;;;24.78;30.60;100594.13;20494562;28;97067;-79
2022/04/30 16:09:52;;;;;;;7.15;3.10;;;;;;;24.89;30.58;100579.91;20490643;28;96975;-78
2022/04/30 16:19:52;;;;;;;4.85;2.85;;;;;;;24.69;31.56;100590.47;20490407;28;97028;-78
2022/04/30 16:29:53;;;;;;;7.28;3.10;;;;;;;24.48;32.12;100595.84;20485701;28;97053;-78
2022/04/30 16:39:53;;;;;;;5.07;3.35;;;;;;;24.25;32.92;100593.41;20483735;28;97698;-79
2022/04/30 16:49:54;;;;;;;6.07;3.03;;;;;;;24.13;33.22;100582.09;20486384;28;98064;-79
2022/04/30 16:59:54;;;;;;;7.20;3.20;;;;;;;24.01;33.42;100583.19;20487088;28;97746;-78
2022/04/30 17:09:56;;;;;;;3.70;2.55;;;;;;;23.98;33.53;100575.50;20488226;28;97108;-79
2022/04/30 17:19:56;;;;;;;5.70;2.50;;;;;;;23.92;33.54;100576.84;20490461;28;97326;-79
2022/04/30 17:29:57;;;;;;;4.75;2.65;;;;;;;23.86;33.41;100579.16;20488323;28;96870;-79
2022/04/30 17:39:58;;;;;;;2.40;2.20;;;;;;;23.78;33.91;100588.59;20487348;28;96987;-79
2022/04/30 17:49:59;;;;;;;5.43;2.78;;;;;;;23.71;33.75;100590.09;20486394;28;97401;-78
2022/04/30 17:59:59;;;;;;;3.00;2.28;;;;;;;23.66;33.99;100597.56;20487715;28;97117;-78
2022/04/30 18:09:59;;;;;;;4.25;2.83;;;;;;;23.60;33.92;100613.97;20484360;28;97359;-78
2022/04/30 18:20:00;;;;;;;3.63;2.70;;;;;;;23.54;34.20;100615.28;20489679;28;97547;-78
2022/04/30 18:30:05;;;;;;;3.10;2.22;;;;;;;23.48;34.66;100621.09;20487108;28;96821;-79
2022/04/30 18:40:06;;;;;;;2.75;2.38;;;;;;;23.46;34.39;100634.44;20486775;28;97055;-79
2022/04/30 18:50:07;;;;;;;3.00;2.37;;;;;;;23.42;34.71;100640.13;20485568;28;96891;-79
2022/04/30 19:10:27;;;;;;;3.83;2.15;;;;;;;23.35;35.07;100668.84;20484670;28;97096;-79
2022/04/30 19:20:29;;;;;;;2.92;2.28;;;;;;;23.32;35.00;100666.47;20485907;28;97452;-78
2022/04/30 19:30:30;;;;;;;4.72;2.40;;;;;;;23.32;34.82;100671.75;20495637;28;97536;-79
2022/04/30 19:40:32;;;;;;;4.32;2.65;;;;;;;23.27;35.21;100666.84;20497334;28;97224;-79
2022/04/30 19:50:33;;;;;;;;;;;;;;;23.28;35.13;100670.34;20498003;28;96950;-79
2022/04/30 20:00:33;;;;;;;2.92;2.40;;;;;;;23.22;35.18;100674.31;20484957;28;97060;-79
2022/04/30 20:20:54;;;;;;;3.15;2.33;;;;;;;23.20;35.44;100670.13;20496140;28;97004;-79
2022/04/30 20:41:13;;;;;;;2.55;2.20;;;;;;;23.15;35.32;100671.28;20496648;28;97141;-79
2022/04/30 20:51:14;;;;;;;2.95;2.38;;;;;;;23.14;35.35;100666.97;20491903;28;97041;-77
2022/04/30 21:01:15;;;;;;;2.95;2.38;;;;;;;23.12;35.62;100668.03;20488196;28;97075;-77
2022/04/30 21:11:16;;;;;;;2.35;2.10;;;;;;;23.09;35.65;100666.50;20488144;28;97389;-78
2022/04/30 21:21:16;;;;;;;2.22;1.92;;;;;;;23.10;35.55;100678.75;20486024;28;96919;-78
2022/04/30 21:31:19;;;;;;;5.00;2.10;;;;;;;23.08;35.43;100679.84;20482116;28;97096;-79
2022/04/30 21:51:40;;;;;;;2.75;2.00;;;;;;;23.05;35.87;100674.81;20485049;28;97178;-78
2022/04/30 22:01:53;;;;;;;2.50;2.05;;;;;;;23.02;35.83;100673.22;20482955;28;97656;-78
2022/04/30 22:11:54;;;;;;;2.58;2.08;;;;;;;23.00;35.73;100678.66;20485453;28;97310;-79
2022/04/30 22:21:55;;;;;;;2.63;2.20;;;;;;;22.99;35.92;100669.03;20488987;28;100694;-79
2022/04/30 22:31:55;;;;;;;4.32;2.25;;;;;;;22.98;35.76;100667.34;20486733;28;96820;-78
2022/04/30 22:52:15;;;;;;;2.47;2.28;;;;;;;22.97;36.04;100673.63;20483466;28;97083;-78
2022/04/30 23:02:15;;;;;;;2.88;2.40;;;;;;;22.98;36.15;100675.28;20494588;28;97060;-78
2022/04/30 23:12:17;;;;;;;3.10;2.30;;;;;;;22.95;36.07;100661.50;20501085;28;96835;-79
2022/04/30 23:22:19;;;;;;;3.20;2.50;;;;;;;22.96;35.95;100650.81;20496112;28;96968;-79
2022/04/30 23:32:19;;;;;;;2.97;2.38;;;;;;;22.92;36.41;100659.94;20496698;27;97405;-78
2022/04/30 23:42:19;;;;;;;3.78;2.53;;;;;;;22.92;36.55;100656.47;20493234;28;96968;-78
2022/04/30 23:52:20;;;;;;;2.63;2.30;;;;;;;22.91;36.34;100660.06;20484223;28;96838;-79
